createdAt,value
2019-01-18T00:02:00.941Z,3.20
2019-01-18T00:04:22.135Z,3.20
2019-01-18T00:06:43.331Z,3.20
2019-01-18T00:09:05.243Z,3.20
2019-01-18T00:11:27.833Z,3.10
2019-01-18T00:13:49.038Z,3.10
2019-01-18T00:16:10.247Z,3.10
2019-01-18T00:18:32.503Z,3.20
2019-01-18T00:20:53.852Z,3.10
2019-01-18T00:23:15.074Z,3.00
2019-01-18T00:25:36.378Z,3.10
2019-01-18T00:27:57.631Z,3.00
2019-01-18T00:30:20.224Z,2.90
2019-01-18T00:32:41.534Z,2.90
2019-01-18T00:35:03.967Z,2.80
2019-01-18T00:37:25.150Z,2.80
2019-01-18T00:39:47.679Z,2.70
2019-01-18T00:42:09.069Z,2.70
2019-01-18T00:44:30.449Z,2.80
2019-01-18T00:46:51.633Z,2.80
2019-01-18T00:49:12.851Z,2.80
2019-01-18T00:51:34.103Z,2.80
2019-01-18T00:53:55.411Z,2.80
2019-01-18T00:56:16.597Z,2.80
2019-01-18T00:58:37.910Z,2.80
2019-01-18T01:00:59.170Z,2.90
2019-01-18T01:03:20.378Z,2.90
2019-01-18T01:05:41.564Z,2.90
2019-01-18T01:08:03.011Z,2.90
2019-01-18T01:10:25.496Z,2.90
2019-01-18T01:12:46.720Z,2.90
2019-01-18T01:15:16.129Z,2.90
2019-01-18T01:17:37.409Z,2.90
2019-01-18T01:19:58.618Z,2.90
2019-01-18T01:22:19.891Z,2.90
2019-01-18T01:24:41.262Z,2.90
2019-01-18T01:27:02.456Z,2.90
2019-01-18T01:29:23.668Z,2.80
2019-01-18T01:31:44.919Z,2.90
2019-01-18T01:34:06.543Z,2.80
2019-01-18T01:36:27.735Z,2.80
2019-01-18T01:38:48.977Z,2.90
2019-01-18T01:41:10.170Z,2.80
2019-01-18T01:43:31.394Z,2.80
2019-01-18T01:45:52.606Z,2.80
2019-01-18T01:48:13.839Z,2.80
2019-01-18T01:50:35.038Z,2.80
2019-01-18T01:52:56.255Z,2.90
2019-01-18T01:55:17.491Z,2.90
2019-01-18T01:57:38.841Z,2.90
2019-01-18T02:00:00.190Z,2.90
2019-01-18T02:02:21.411Z,2.80
2019-01-18T02:04:42.758Z,2.80
2019-01-18T02:07:03.974Z,2.90
2019-01-18T02:09:25.285Z,2.80
2019-01-18T02:11:46.498Z,2.90
2019-01-18T02:14:07.693Z,2.80
2019-01-18T02:16:28.917Z,2.90
2019-01-18T02:18:50.195Z,2.80
2019-01-18T02:21:11.394Z,2.80
2019-01-18T02:23:32.603Z,2.70
2019-01-18T02:25:53.809Z,2.80
2019-01-18T02:28:15.027Z,2.70
2019-01-18T02:30:36.229Z,2.70
2019-01-18T02:32:57.426Z,2.80
2019-01-18T02:35:19.319Z,2.60
2019-01-18T02:37:41.859Z,2.60
2019-01-18T02:40:07.844Z,2.60
2019-01-18T02:42:29.235Z,2.50
2019-01-18T02:44:50.446Z,2.50
2019-01-18T02:47:11.649Z,2.40
2019-01-18T02:49:32.860Z,2.30
2019-01-18T02:51:54.077Z,2.30
2019-01-18T02:54:15.295Z,2.30
2019-01-18T02:56:36.487Z,2.30
2019-01-18T02:58:57.695Z,2.30
2019-01-18T03:01:18.894Z,2.30
2019-01-18T03:03:40.088Z,2.40
2019-01-18T03:06:01.307Z,2.40
2019-01-18T03:08:22.572Z,2.40
2019-01-18T03:10:43.783Z,2.50
2019-01-18T03:13:04.980Z,2.50
2019-01-18T03:15:26.181Z,2.40
2019-01-18T03:17:47.377Z,2.50
2019-01-18T03:20:11.006Z,2.50
2019-01-18T03:22:32.199Z,2.50
2019-01-18T03:24:54.617Z,2.50
2019-01-18T03:27:15.805Z,2.50
2019-01-18T03:29:37.028Z,2.50
2019-01-18T03:31:58.229Z,2.50
2019-01-18T03:34:19.429Z,2.50
2019-01-18T03:36:40.621Z,2.50
2019-01-18T03:39:04.841Z,2.40
2019-01-18T03:41:26.023Z,2.50
2019-01-18T03:43:47.231Z,2.50
2019-01-18T03:46:08.455Z,2.50
2019-01-18T03:48:29.690Z,2.50
2019-01-18T03:50:50.934Z,2.40
2019-01-18T03:53:12.261Z,2.40
2019-01-18T03:55:33.473Z,2.50
2019-01-18T03:57:54.659Z,2.50
2019-01-18T04:00:25.793Z,2.40
2019-01-18T04:02:42.424Z,2.40
2019-01-18T04:05:06.918Z,2.40
2019-01-18T04:07:28.114Z,2.40
2019-01-18T04:09:49.475Z,2.40
2019-01-18T04:12:10.768Z,2.50
2019-01-18T04:14:31.991Z,2.50
2019-01-18T04:16:53.284Z,2.50
2019-01-18T04:19:14.493Z,2.40
2019-01-18T04:21:35.718Z,2.50
2019-01-18T04:23:56.925Z,2.50
2019-01-18T04:26:18.152Z,2.50
2019-01-18T04:28:39.347Z,2.50
2019-01-18T04:31:00.587Z,2.50
2019-01-18T04:33:21.865Z,2.50
2019-01-18T04:35:43.078Z,2.50
2019-01-18T04:38:04.286Z,2.50
2019-01-18T04:40:26.591Z,2.50
2019-01-18T04:42:48.793Z,2.50
2019-01-18T04:45:10.009Z,2.50
2019-01-18T04:47:31.305Z,2.50
2019-01-18T04:49:52.600Z,2.50
2019-01-18T04:52:13.795Z,2.50
2019-01-18T04:54:35.021Z,2.50
2019-01-18T04:56:56.243Z,2.50
2019-01-18T04:59:17.723Z,2.50
2019-01-18T05:01:39.025Z,2.50
2019-01-18T05:04:00.226Z,2.50
2019-01-18T05:06:21.462Z,2.50
2019-01-18T05:08:42.677Z,2.50
2019-01-18T05:11:04.112Z,2.50
2019-01-18T05:13:25.310Z,2.50
2019-01-18T05:15:46.523Z,2.50
2019-01-18T05:18:07.817Z,2.50
2019-01-18T05:20:29.032Z,2.50
2019-01-18T05:22:50.448Z,2.50
2019-01-18T05:25:12.240Z,2.50
2019-01-18T05:27:33.438Z,2.50
2019-01-18T05:29:54.650Z,2.50
2019-01-18T05:32:15.855Z,2.50
2019-01-18T05:34:37.053Z,2.50
2019-01-18T05:36:58.313Z,2.50
2019-01-18T05:39:19.561Z,2.50
2019-01-18T05:41:40.884Z,2.50
2019-01-18T05:44:02.070Z,2.50
2019-01-18T05:46:23.389Z,2.40
2019-01-18T05:48:44.576Z,2.40
2019-01-18T05:51:05.796Z,2.50
2019-01-18T05:53:27.490Z,2.50
2019-01-18T05:55:48.700Z,2.50
2019-01-18T05:58:10.000Z,2.50
2019-01-18T06:00:34.236Z,2.50
2019-01-18T06:02:55.429Z,2.50
2019-01-18T06:05:18.420Z,2.50
2019-01-18T06:07:39.617Z,2.50
2019-01-18T06:10:00.817Z,2.40
2019-01-18T06:12:22.029Z,2.50
2019-01-18T06:14:43.226Z,2.50
2019-01-18T06:17:04.430Z,2.50
2019-01-18T06:19:25.693Z,2.50
2019-01-18T06:21:46.997Z,2.50
2019-01-18T06:24:08.223Z,2.60
2019-01-18T06:26:32.547Z,2.60
2019-01-18T06:28:53.771Z,2.60
2019-01-18T06:31:15.034Z,2.60
2019-01-18T06:33:36.226Z,2.60
2019-01-18T06:35:57.651Z,2.60
2019-01-18T06:38:18.917Z,2.50
2019-01-18T06:40:40.115Z,2.50
2019-01-18T06:43:01.568Z,2.50
2019-01-18T06:45:26.089Z,2.50
2019-01-18T06:47:47.574Z,2.40
2019-01-18T06:50:12.387Z,2.40
2019-01-18T06:52:33.634Z,2.40
2019-01-18T06:54:54.886Z,2.40
2019-01-18T06:57:16.111Z,2.40
2019-01-18T06:59:37.522Z,2.50
2019-01-18T07:01:59.480Z,2.50
2019-01-18T07:04:21.066Z,2.50
2019-01-18T07:06:42.277Z,2.50
2019-01-18T07:09:05.976Z,2.50
2019-01-18T07:11:27.963Z,2.50
2019-01-18T07:13:49.188Z,2.50
2019-01-18T07:16:10.400Z,2.50
2019-01-18T07:18:31.601Z,2.40
2019-01-18T07:20:52.810Z,2.40
2019-01-18T07:23:14.030Z,2.50
2019-01-18T07:25:35.343Z,2.40
2019-01-18T07:27:56.555Z,2.40
2019-01-18T07:30:21.064Z,2.40
2019-01-18T07:32:42.270Z,2.50
2019-01-18T07:35:05.915Z,2.50
2019-01-18T07:37:27.230Z,2.60
2019-01-18T07:39:48.730Z,2.60
2019-01-18T07:42:09.939Z,2.70
2019-01-18T07:44:31.148Z,2.70
2019-01-18T07:46:52.461Z,2.70
2019-01-18T07:49:13.670Z,2.80
2019-01-18T07:51:34.989Z,2.80
2019-01-18T07:53:56.322Z,2.80
2019-01-18T07:56:17.615Z,2.90
2019-01-18T07:58:39.025Z,2.90
2019-01-18T08:01:00.262Z,2.80
2019-01-18T08:03:22.786Z,2.80
2019-01-18T08:05:43.972Z,2.80
2019-01-18T08:08:05.196Z,2.80
2019-01-18T08:10:26.721Z,2.90
2019-01-18T08:12:47.945Z,2.90
2019-01-18T08:15:12.230Z,2.90
2019-01-18T08:17:33.454Z,2.90
2019-01-18T08:19:55.702Z,2.90
2019-01-18T08:22:17.004Z,3.00
2019-01-18T08:24:38.228Z,3.10
2019-01-18T08:26:59.400Z,3.10
2019-01-18T08:29:21.010Z,3.10
2019-01-18T08:31:42.534Z,3.10
2019-01-18T08:34:03.787Z,3.20
2019-01-18T08:36:25.014Z,3.20
2019-01-18T08:38:46.239Z,3.10
2019-01-18T08:41:07.473Z,3.10
2019-01-18T08:43:28.685Z,3.10
2019-01-18T08:45:50.625Z,3.10
2019-01-18T08:48:12.210Z,3.10
2019-01-18T08:50:33.389Z,3.10
2019-01-18T08:52:54.685Z,3.00
2019-01-18T08:55:15.895Z,3.00
2019-01-18T08:57:37.169Z,3.00
2019-01-18T08:59:58.410Z,3.10
2019-01-18T09:02:19.629Z,3.10
2019-01-18T09:04:40.837Z,3.10
2019-01-18T09:07:02.021Z,3.00
2019-01-18T09:09:23.246Z,3.00
2019-01-18T09:11:44.540Z,2.90
2019-01-18T09:14:05.744Z,2.90
2019-01-18T09:16:26.927Z,2.90
2019-01-18T09:18:48.146Z,2.90
2019-01-18T09:21:09.321Z,3.00
2019-01-18T09:23:30.536Z,3.10
2019-01-18T09:25:51.755Z,3.00
2019-01-18T09:28:12.962Z,2.90
2019-01-18T09:30:34.307Z,2.90
2019-01-18T09:32:55.683Z,3.00
2019-01-18T09:35:19.086Z,3.00
2019-01-18T09:37:40.286Z,3.00
2019-01-18T09:40:03.206Z,3.00
2019-01-18T09:42:24.472Z,3.10
2019-01-18T09:44:45.669Z,3.10
2019-01-18T09:47:06.857Z,3.20
2019-01-18T09:49:28.358Z,3.40
2019-01-18T09:51:49.563Z,3.50
2019-01-18T09:54:10.987Z,3.60
2019-01-18T09:56:32.188Z,3.80
2019-01-18T09:58:53.594Z,3.90
2019-01-18T10:01:14.821Z,4.00
2019-01-18T10:03:36.182Z,4.10
2019-01-18T10:05:57.402Z,4.10
2019-01-18T10:08:18.591Z,4.10
2019-01-18T10:10:39.804Z,4.10
2019-01-18T10:13:01.003Z,4.00
2019-01-18T10:15:30.372Z,3.90
2019-01-18T10:17:51.767Z,3.80
2019-01-18T10:20:16.024Z,3.90
2019-01-18T10:22:37.210Z,3.90
2019-01-18T10:24:58.441Z,4.10
2019-01-18T10:27:23.898Z,4.20
2019-01-18T10:29:42.812Z,4.10
2019-01-18T10:32:04.036Z,4.10
2019-01-18T10:34:25.224Z,4.20
2019-01-18T10:36:46.872Z,4.30
2019-01-18T10:39:09.071Z,4.20
2019-01-18T10:41:30.273Z,4.20
2019-01-18T10:43:51.455Z,4.20
2019-01-18T10:46:12.674Z,4.10
2019-01-18T10:48:33.866Z,4.30
2019-01-18T10:50:55.071Z,4.50
2019-01-18T10:53:36.144Z,4.40
2019-01-18T10:55:57.352Z,4.60
2019-01-18T10:58:18.655Z,4.70
2019-01-18T11:00:39.923Z,4.70
2019-01-18T11:03:01.193Z,4.90
2019-01-18T11:05:22.769Z,5.00
2019-01-18T11:07:43.963Z,5.00
2019-01-18T11:10:08.364Z,4.90
2019-01-18T11:12:29.590Z,4.90
2019-01-18T11:14:50.795Z,4.80
2019-01-18T11:17:12.005Z,4.80
2019-01-18T11:19:33.249Z,4.90
2019-01-18T11:21:54.576Z,5.00
2019-01-18T11:24:15.866Z,4.90
2019-01-18T11:26:37.076Z,4.80
2019-01-18T11:28:58.259Z,4.90
2019-01-18T11:31:23.321Z,4.90
2019-01-18T11:33:42.944Z,4.80
2019-01-18T11:36:04.259Z,4.90
2019-01-18T11:38:25.460Z,4.90
2019-01-18T11:40:46.653Z,4.80
2019-01-18T11:43:07.886Z,4.70
2019-01-18T11:45:29.237Z,4.70
2019-01-18T11:47:50.443Z,4.70
2019-01-18T11:50:14.949Z,4.80
2019-01-18T11:52:38.395Z,4.80
2019-01-18T11:55:00.622Z,4.80
2019-01-18T11:57:21.831Z,4.90
2019-01-18T11:59:43.061Z,5.00
2019-01-18T12:02:04.282Z,5.00
2019-01-18T12:04:25.478Z,5.10
2019-01-18T12:06:46.705Z,5.10
2019-01-18T12:09:07.899Z,5.10
2019-01-18T12:11:30.250Z,5.30
2019-01-18T12:13:51.813Z,5.30
2019-01-18T12:16:13.025Z,5.40
2019-01-18T12:18:34.253Z,5.40
2019-01-18T12:20:56.986Z,5.50
2019-01-18T12:23:18.180Z,5.50
2019-01-18T12:25:39.376Z,5.40
2019-01-18T12:28:00.572Z,5.40
2019-01-18T12:30:27.219Z,5.60
2019-01-18T12:32:48.447Z,5.50
2019-01-18T12:35:09.625Z,5.50
2019-01-18T12:37:30.836Z,5.50
2019-01-18T12:39:52.117Z,5.60
2019-01-18T12:42:13.366Z,5.60
2019-01-18T12:44:34.560Z,5.60
2019-01-18T12:46:55.784Z,5.60
2019-01-18T12:49:16.986Z,5.50
2019-01-18T12:51:38.307Z,5.50
2019-01-18T12:53:59.523Z,5.50
2019-01-18T12:56:20.696Z,5.60
2019-01-18T12:58:41.923Z,5.70
2019-01-18T13:01:04.327Z,5.70
2019-01-18T13:03:25.534Z,5.70
2019-01-18T13:05:46.739Z,5.80
2019-01-18T13:08:08.084Z,5.80
2019-01-18T13:10:29.273Z,5.80
2019-01-18T13:12:50.483Z,5.80
2019-01-18T13:15:23.938Z,5.80
2019-01-18T13:17:45.148Z,5.80
2019-01-18T13:20:10.146Z,5.90
2019-01-18T13:22:31.624Z,5.90
2019-01-18T13:24:52.963Z,5.80
2019-01-18T13:27:14.250Z,5.90
2019-01-18T13:29:36.515Z,5.80
2019-01-18T13:31:57.776Z,5.80
2019-01-18T13:34:19.145Z,5.80
2019-01-18T13:36:40.422Z,5.80
2019-01-18T13:39:01.780Z,5.80
2019-01-18T13:41:24.278Z,5.80
2019-01-18T13:43:45.480Z,5.70
2019-01-18T13:46:06.674Z,5.50
2019-01-18T13:48:27.905Z,5.50
2019-01-18T13:50:49.215Z,5.50
2019-01-18T13:53:10.417Z,5.50
2019-01-18T13:55:31.601Z,5.30
2019-01-18T13:57:52.798Z,5.40
2019-01-18T14:00:14.011Z,5.30
2019-01-18T14:02:35.233Z,5.30
2019-01-18T14:04:56.504Z,5.20
2019-01-18T14:07:17.732Z,5.10
2019-01-18T14:09:38.962Z,5.00
2019-01-18T14:12:00.162Z,5.00
2019-01-18T14:14:22.062Z,5.00
2019-01-18T14:16:43.257Z,4.90
2019-01-18T14:19:04.471Z,4.90
2019-01-18T14:21:25.670Z,4.80
2019-01-18T14:23:46.936Z,4.70
2019-01-18T14:26:08.215Z,4.70
2019-01-18T14:28:29.479Z,4.60
2019-01-18T14:30:50.736Z,4.60
2019-01-18T14:33:11.954Z,4.60
2019-01-18T14:35:33.130Z,4.60
2019-01-18T14:37:54.347Z,4.50
2019-01-18T14:40:16.650Z,4.50
2019-01-18T14:42:37.853Z,4.40
2019-01-18T14:44:59.069Z,4.40
2019-01-18T14:47:20.274Z,4.40
2019-01-18T14:49:41.509Z,4.30
2019-01-18T14:52:02.740Z,4.30
2019-01-18T14:54:23.950Z,4.30
2019-01-18T14:56:45.144Z,4.20
2019-01-18T14:59:06.354Z,4.10
2019-01-18T15:01:27.554Z,4.00
2019-01-18T15:03:48.774Z,4.00
2019-01-18T15:06:09.965Z,4.00
2019-01-18T15:08:31.234Z,4.00
2019-01-18T15:10:52.522Z,3.90
2019-01-18T15:13:13.723Z,3.80
2019-01-18T15:15:34.933Z,3.80
2019-01-18T15:17:56.264Z,3.80
2019-01-18T15:20:20.257Z,3.70
2019-01-18T15:22:41.450Z,3.80
2019-01-18T15:25:04.787Z,3.80
2019-01-18T15:27:26.054Z,3.90
2019-01-18T15:29:47.285Z,3.90
2019-01-18T15:32:09.068Z,3.80
2019-01-18T15:34:30.294Z,3.70
2019-01-18T15:36:51.685Z,3.70
2019-01-18T15:39:13.610Z,3.60
2019-01-18T15:41:34.821Z,3.70
2019-01-18T15:43:56.052Z,3.70
2019-01-18T15:46:17.248Z,3.60
2019-01-18T15:48:38.819Z,3.70
2019-01-18T15:51:00.001Z,3.60
2019-01-18T15:53:21.196Z,3.60
2019-01-18T15:55:42.390Z,3.60
2019-01-18T15:58:04.653Z,3.50
2019-01-18T16:00:34.999Z,3.50
2019-01-18T16:02:56.277Z,3.40
2019-01-18T16:05:17.541Z,3.30
2019-01-18T16:07:38.890Z,3.20
2019-01-18T16:10:00.263Z,3.20
2019-01-18T16:12:21.840Z,3.20
2019-01-18T16:14:43.523Z,3.20
2019-01-18T16:17:05.107Z,3.10
2019-01-18T16:19:26.316Z,3.10
2019-01-18T16:21:48.610Z,3.00
2019-01-18T16:24:09.839Z,2.90
2019-01-18T16:26:31.029Z,2.90
2019-01-18T16:28:52.236Z,2.80
2019-01-18T16:31:13.447Z,2.80
2019-01-18T16:33:34.663Z,2.70
2019-01-18T16:35:55.873Z,2.70
2019-01-18T16:38:17.071Z,2.60
2019-01-18T16:40:38.293Z,2.60
2019-01-18T16:43:03.179Z,2.60
2019-01-18T16:45:24.408Z,2.50
2019-01-18T16:47:45.602Z,2.40
2019-01-18T16:50:12.538Z,2.40
2019-01-18T16:52:33.733Z,2.30
2019-01-18T16:54:55.000Z,2.30
2019-01-18T16:57:16.314Z,2.30
2019-01-18T16:59:37.543Z,2.20
2019-01-18T17:01:58.750Z,2.20
2019-01-18T17:04:20.266Z,2.10
2019-01-18T17:06:41.587Z,2.10
2019-01-18T17:09:07.178Z,2.10
2019-01-18T17:11:28.386Z,2.20
2019-01-18T17:13:49.807Z,2.30
2019-01-18T17:16:11.012Z,2.30
2019-01-18T17:18:32.698Z,2.20
2019-01-18T17:20:53.909Z,2.20
2019-01-18T17:23:15.119Z,2.20
2019-01-18T17:25:36.349Z,2.00
2019-01-18T17:27:57.677Z,2.10
2019-01-18T17:30:20.389Z,2.20
2019-01-18T17:32:41.570Z,2.20
2019-01-18T17:35:06.595Z,2.20
2019-01-18T17:37:28.193Z,2.20
2019-01-18T17:39:49.609Z,2.10
2019-01-18T17:42:14.621Z,2.00
2019-01-18T17:44:51.632Z,1.90
2019-01-18T17:47:23.570Z,2.00
2019-01-18T17:49:57.277Z,1.90
2019-01-18T17:52:27.993Z,1.90
2019-01-18T17:54:55.767Z,1.80
2019-01-18T17:57:23.710Z,1.70
2019-01-18T17:59:49.266Z,1.70
2019-01-18T18:02:27.018Z,1.60
2019-01-18T18:05:13.580Z,1.50
2019-01-18T18:07:56.864Z,1.50
2019-01-18T18:10:23.006Z,1.40
2019-01-18T18:13:07.633Z,1.30
2019-01-18T18:15:59.955Z,1.30
2019-01-18T18:18:59.642Z,1.30
2019-01-18T18:21:42.641Z,1.30
2019-01-18T18:24:13.137Z,1.10
2019-01-18T18:26:53.622Z,1.10
2019-01-18T18:29:30.113Z,1.00
2019-01-18T18:31:55.394Z,0.90
2019-01-18T18:34:43.522Z,0.80
2019-01-18T18:37:23.870Z,0.70
2019-01-18T18:39:48.898Z,0.60
2019-01-18T18:42:28.301Z,0.60
2019-01-18T18:45:23.297Z,0.50
2019-01-18T18:47:56.865Z,0.50
2019-01-18T18:50:48.860Z,0.60
2019-01-18T18:53:31.937Z,0.60
2019-01-18T18:56:15.166Z,0.50
2019-01-18T18:59:01.531Z,0.50
2019-01-18T19:01:41.786Z,0.40
2019-01-18T19:04:09.840Z,0.30
2019-01-18T19:06:40.805Z,0.30
2019-01-18T19:09:31.956Z,0.30
2019-01-18T19:12:09.038Z,0.30
2019-01-18T19:14:39.881Z,0.30
2019-01-18T19:17:22.534Z,0.40
2019-01-18T19:20:13.105Z,0.40
2019-01-18T19:22:56.206Z,0.50
2019-01-18T19:25:36.653Z,0.40
2019-01-18T19:28:13.891Z,0.50
2019-01-18T19:30:47.941Z,0.50
2019-01-18T19:33:15.879Z,0.50
2019-01-18T19:35:41.286Z,0.40
2019-01-18T19:38:15.113Z,0.40
2019-01-18T19:40:44.282Z,0.40
2019-01-18T19:43:18.134Z,0.40
2019-01-18T19:45:52.640Z,0.30
2019-01-18T19:48:17.654Z,0.30
2019-01-18T19:50:51.842Z,0.30
2019-01-18T19:53:24.308Z,0.30
2019-01-18T19:55:58.834Z,0.30
2019-01-18T19:58:33.143Z,0.40
2019-01-18T20:01:07.118Z,0.30
2019-01-18T20:03:34.880Z,0.30
2019-01-18T20:06:19.832Z,0.30
2019-01-18T20:08:50.693Z,0.20
2019-01-18T20:14:54.681Z,0.20
2019-01-18T20:17:29.103Z,0.20
2019-01-18T20:19:54.412Z,0.20
2019-01-18T20:22:25.599Z,0.20
2019-01-18T20:25:03.494Z,0.20
2019-01-18T20:27:37.486Z,0.10
2019-01-18T20:30:08.287Z,0.10
2019-01-18T20:32:39.272Z,0.10
2019-01-18T20:35:11.301Z,0.10
2019-01-18T20:37:36.815Z,0.00
2019-01-18T20:40:13.201Z,-0.10
2019-01-18T20:42:53.454Z,0.00
2019-01-18T20:45:41.514Z,0.00
2019-01-18T20:48:19.012Z,-0.10
2019-01-18T20:50:50.188Z,-0.20
2019-01-18T20:53:17.957Z,-0.30
2019-01-18T20:56:14.791Z,-0.20
2019-01-18T20:58:39.936Z,-0.20
2019-01-18T21:01:29.324Z,-0.30
2019-01-18T21:04:11.925Z,-0.40
2019-01-18T21:09:24.013Z,-0.30
2019-01-18T21:11:51.904Z,-0.30
2019-01-18T21:14:20.086Z,-0.30
2019-01-18T21:17:03.926Z,-0.30
2019-01-18T21:19:47.864Z,-0.40
2019-01-18T21:22:43.574Z,-0.30
2019-01-18T21:25:11.298Z,-0.30
2019-01-18T21:27:52.160Z,-0.30
2019-01-18T21:30:42.807Z,-0.20
2019-01-18T21:33:10.760Z,-0.30
2019-01-18T21:36:03.147Z,-0.30
2019-01-18T21:38:44.633Z,-0.30
2019-01-18T21:41:21.698Z,-0.30
2019-01-18T21:44:10.450Z,-0.30
2019-01-18T21:46:38.582Z,-0.30
2019-01-18T21:49:18.549Z,-0.40
2019-01-18T21:51:43.665Z,-0.40
2019-01-18T21:54:20.732Z,-0.50
2019-01-18T21:56:45.761Z,-0.50
2019-01-18T21:59:25.695Z,-0.50
2019-01-18T22:02:03.012Z,-0.50
2019-01-18T22:04:31.064Z,-0.50
2019-01-18T22:07:16.171Z,-0.50
2019-01-18T22:09:53.609Z,-0.60
2019-01-18T22:12:21.417Z,-0.60
2019-01-18T22:15:03.274Z,-0.60
2019-01-18T22:17:28.277Z,-0.60
2019-01-18T22:20:26.609Z,-0.70
2019-01-18T22:23:00.589Z,-0.80
2019-01-18T22:25:48.315Z,-0.80
2019-01-18T22:28:35.787Z,-0.80
2019-01-18T22:31:03.740Z,-0.80
2019-01-18T22:33:29.751Z,-0.80
2019-01-18T22:36:01.343Z,-0.90
2019-01-18T22:38:43.911Z,-0.90
2019-01-18T22:41:08.934Z,-0.90
2019-01-18T22:43:36.991Z,-0.90
2019-01-18T22:46:26.354Z,-1.00
2019-01-18T22:49:05.970Z,-1.10
2019-01-18T22:51:39.991Z,-1.00
2019-01-18T22:54:10.894Z,-1.10
2019-01-18T22:56:45.009Z,-0.90
2019-01-18T22:59:27.062Z,-0.90
2019-01-18T23:01:52.118Z,-0.90
2019-01-18T23:04:29.431Z,-1.10
2019-01-18T23:06:54.457Z,-1.00
2019-01-18T23:09:37.610Z,-0.90
2019-01-18T23:12:14.970Z,-0.90
2019-01-18T23:14:56.473Z,-0.90
2019-01-18T23:17:27.452Z,-0.90
2019-01-18T23:20:14.884Z,-0.90
2019-01-18T23:22:49.051Z,-1.00
2019-01-18T23:25:17.059Z,-0.90
2019-01-18T23:27:47.811Z,-0.90
2019-01-18T23:30:15.575Z,-1.00
2019-01-18T23:32:55.209Z,-1.00
2019-01-18T23:35:47.430Z,-1.00
2019-01-18T23:38:18.162Z,-1.10
2019-01-18T23:40:46.147Z,-1.10
2019-01-18T23:43:20.015Z,-1.10
2019-01-18T23:45:44.997Z,-1.20
2019-01-18T23:48:22.298Z,-1.40
2019-01-18T23:50:50.321Z,-1.50
2019-01-18T23:53:30.436Z,-1.60
2019-01-18T23:56:13.688Z,-1.50
2019-01-18T23:58:38.702Z,-1.50
